sensor_id;sensor_type;location;lat;lon;timestamp;P1;durP1;ratioP1;P2;durP2;ratioP2
28605;SDS011;46498;49.968;7.754;2023-05-08T00:03:47;2.87;;;1.92;;
28605;SDS011;46498;49.968;7.754;2023-05-08T00:08:48;3.47;;;2.30;;
28605;SDS011;46498;49.968;7.754;2023-05-08T00:13:49;4.07;;;2.40;;
28605;SDS011;46498;49.968;7.754;2023-05-08T00:18:50;2.33;;;2.03;;
28605;SDS011;46498;49.968;7.754;2023-05-08T00:23:52;2.73;;;2.17;;
28605;SDS011;46498;49.968;7.754;2023-05-08T00:28:53;6.60;;;2.30;;
28605;SDS011;46498;49.968;7.754;2023-05-08T00:33:55;5.18;;;2.97;;
28605;SDS011;46498;49.968;7.754;2023-05-08T00:38:55;4.82;;;2.80;;
28605;SDS011;46498;49.968;7.754;2023-05-08T00:43:56;3.03;;;2.50;;
28605;SDS011;46498;49.968;7.754;2023-05-08T00:48:57;5.18;;;3.17;;
28605;SDS011;46498;49.968;7.754;2023-05-08T00:53:58;4.10;;;3.00;;
28605;SDS011;46498;49.968;7.754;2023-05-08T00:58:59;3.17;;;2.50;;
28605;SDS011;46498;49.968;7.754;2023-05-08T01:04:01;5.97;;;3.08;;
28605;SDS011;46498;49.968;7.754;2023-05-08T01:09:03;3.83;;;2.57;;
28605;SDS011;46498;49.968;7.754;2023-05-08T01:14:10;2.85;;;1.98;;
28605;SDS011;46498;49.968;7.754;2023-05-08T01:37:07;2.80;;;2.42;;
28605;SDS011;46498;49.968;7.754;2023-05-08T01:42:23;3.05;;;2.50;;
28605;SDS011;46498;49.968;7.754;2023-05-08T01:47:34;4.60;;;3.08;;
28605;SDS011;46498;49.968;7.754;2023-05-08T01:52:42;5.70;;;3.42;;
28605;SDS011;46498;49.968;7.754;2023-05-08T01:57:46;4.10;;;2.87;;
28605;SDS011;46498;49.968;7.754;2023-05-08T02:02:50;4.45;;;3.15;;
28605;SDS011;46498;49.968;7.754;2023-05-08T02:07:53;5.03;;;3.30;;
28605;SDS011;46498;49.968;7.754;2023-05-08T02:12:57;4.15;;;3.37;;
28605;SDS011;46498;49.968;7.754;2023-05-08T02:18:02;5.68;;;4.22;;
28605;SDS011;46498;49.968;7.754;2023-05-08T02:23:05;4.45;;;3.00;;
28605;SDS011;46498;49.968;7.754;2023-05-08T02:28:06;5.10;;;3.00;;
28605;SDS011;46498;49.968;7.754;2023-05-08T02:33:07;5.50;;;3.47;;
28605;SDS011;46498;49.968;7.754;2023-05-08T02:38:11;5.07;;;3.30;;
28605;SDS011;46498;49.968;7.754;2023-05-08T02:43:15;3.60;;;3.17;;
28605;SDS011;46498;49.968;7.754;2023-05-08T02:48:21;6.62;;;4.53;;
28605;SDS011;46498;49.968;7.754;2023-05-08T02:53:35;9.45;;;5.85;;
28605;SDS011;46498;49.968;7.754;2023-05-08T02:58:45;10.43;;;6.35;;
28605;SDS011;46498;49.968;7.754;2023-05-08T03:03:58;19.17;;;10.38;;
28605;SDS011;46498;49.968;7.754;2023-05-08T03:09:04;31.52;;;18.80;;
28605;SDS011;46498;49.968;7.754;2023-05-08T03:14:09;31.73;;;20.33;;
28605;SDS011;46498;49.968;7.754;2023-05-08T03:19:20;27.02;;;18.08;;
28605;SDS011;46498;49.968;7.754;2023-05-08T03:24:25;26.33;;;14.68;;
28605;SDS011;46498;49.968;7.754;2023-05-08T03:29:28;22.20;;;15.60;;
28605;SDS011;46498;49.968;7.754;2023-05-08T03:34:30;24.08;;;16.48;;
28605;SDS011;46498;49.968;7.754;2023-05-08T03:39:32;25.60;;;15.90;;
28605;SDS011;46498;49.968;7.754;2023-05-08T03:44:33;26.52;;;16.30;;
28605;SDS011;46498;49.968;7.754;2023-05-08T03:49:35;21.65;;;15.13;;
28605;SDS011;46498;49.968;7.754;2023-05-08T03:54:38;20.25;;;13.82;;
28605;SDS011;46498;49.968;7.754;2023-05-08T03:59:53;23.02;;;14.27;;
28605;SDS011;46498;49.968;7.754;2023-05-08T04:05:20;17.30;;;12.27;;
28605;SDS011;46498;49.968;7.754;2023-05-08T04:15:49;16.50;;;11.05;;
28605;SDS011;46498;49.968;7.754;2023-05-08T04:20:53;14.75;;;10.68;;
28605;SDS011;46498;49.968;7.754;2023-05-08T04:30:58;14.13;;;10.50;;
28605;SDS011;46498;49.968;7.754;2023-05-08T04:36:00;12.73;;;9.68;;
28605;SDS011;46498;49.968;7.754;2023-05-08T04:41:03;12.37;;;9.15;;
28605;SDS011;46498;49.968;7.754;2023-05-08T04:46:04;10.95;;;8.45;;
28605;SDS011;46498;49.968;7.754;2023-05-08T04:51:06;16.00;;;9.00;;
28605;SDS011;46498;49.968;7.754;2023-05-08T04:56:07;12.23;;;9.32;;
28605;SDS011;46498;49.968;7.754;2023-05-08T05:01:08;12.15;;;8.50;;
28605;SDS011;46498;49.968;7.754;2023-05-08T05:06:09;10.95;;;7.80;;
28605;SDS011;46498;49.968;7.754;2023-05-08T05:11:10;12.13;;;8.05;;
28605;SDS011;46498;49.968;7.754;2023-05-08T05:16:11;12.32;;;8.00;;
28605;SDS011;46498;49.968;7.754;2023-05-08T05:21:13;12.52;;;8.60;;
28605;SDS011;46498;49.968;7.754;2023-05-08T05:26:14;14.98;;;8.90;;
28605;SDS011;46498;49.968;7.754;2023-05-08T05:31:15;13.40;;;9.38;;
28605;SDS011;46498;49.968;7.754;2023-05-08T05:36:16;11.43;;;9.40;;
28605;SDS011;46498;49.968;7.754;2023-05-08T05:41:17;12.45;;;9.00;;
28605;SDS011;46498;49.968;7.754;2023-05-08T05:46:19;14.02;;;8.48;;
28605;SDS011;46498;49.968;7.754;2023-05-08T05:51:21;12.18;;;8.52;;
28605;SDS011;46498;49.968;7.754;2023-05-08T05:56:22;13.30;;;9.20;;
28605;SDS011;46498;49.968;7.754;2023-05-08T06:01:23;13.43;;;9.70;;
28605;SDS011;46498;49.968;7.754;2023-05-08T06:06:24;17.17;;;9.25;;
28605;SDS011;46498;49.968;7.754;2023-05-08T06:11:26;11.60;;;9.30;;
28605;SDS011;46498;49.968;7.754;2023-05-08T06:16:27;14.27;;;9.18;;
28605;SDS011;46498;49.968;7.754;2023-05-08T06:21:30;12.27;;;8.40;;
28605;SDS011;46498;49.968;7.754;2023-05-08T06:26:31;17.73;;;9.38;;
28605;SDS011;46498;49.968;7.754;2023-05-08T06:31:32;13.32;;;9.65;;
28605;SDS011;46498;49.968;7.754;2023-05-08T06:36:33;12.50;;;9.02;;
28605;SDS011;46498;49.968;7.754;2023-05-08T06:41:33;12.80;;;9.48;;
28605;SDS011;46498;49.968;7.754;2023-05-08T06:46:34;15.80;;;11.10;;
28605;SDS011;46498;49.968;7.754;2023-05-08T06:51:35;18.67;;;9.05;;
28605;SDS011;46498;49.968;7.754;2023-05-08T06:56:37;13.65;;;9.68;;
28605;SDS011;46498;49.968;7.754;2023-05-08T07:01:38;13.48;;;10.10;;
28605;SDS011;46498;49.968;7.754;2023-05-08T07:06:39;14.27;;;10.52;;
28605;SDS011;46498;49.968;7.754;2023-05-08T07:11:40;13.18;;;10.98;;
28605;SDS011;46498;49.968;7.754;2023-05-08T07:16:40;12.85;;;9.85;;
28605;SDS011;46498;49.968;7.754;2023-05-08T07:21:42;15.93;;;12.23;;
28605;SDS011;46498;49.968;7.754;2023-05-08T07:26:45;18.85;;;12.25;;
28605;SDS011;46498;49.968;7.754;2023-05-08T07:31:46;17.62;;;12.07;;
28605;SDS011;46498;49.968;7.754;2023-05-08T07:36:48;15.73;;;11.18;;
28605;SDS011;46498;49.968;7.754;2023-05-08T07:41:49;15.75;;;11.73;;
28605;SDS011;46498;49.968;7.754;2023-05-08T07:46:50;18.62;;;12.65;;
28605;SDS011;46498;49.968;7.754;2023-05-08T07:51:52;17.65;;;11.98;;
28605;SDS011;46498;49.968;7.754;2023-05-08T07:56:53;19.77;;;13.27;;
28605;SDS011;46498;49.968;7.754;2023-05-08T08:01:53;18.83;;;13.80;;
28605;SDS011;46498;49.968;7.754;2023-05-08T08:06:54;17.80;;;13.50;;
28605;SDS011;46498;49.968;7.754;2023-05-08T08:11:55;21.55;;;13.80;;
28605;SDS011;46498;49.968;7.754;2023-05-08T08:16:56;20.40;;;13.88;;
28605;SDS011;46498;49.968;7.754;2023-05-08T08:21:57;17.27;;;13.65;;
28605;SDS011;46498;49.968;7.754;2023-05-08T08:26:58;19.30;;;12.88;;
28605;SDS011;46498;49.968;7.754;2023-05-08T08:31:59;17.30;;;13.48;;
28605;SDS011;46498;49.968;7.754;2023-05-08T08:37:00;16.33;;;13.15;;
28605;SDS011;46498;49.968;7.754;2023-05-08T08:42:01;21.37;;;13.43;;
28605;SDS011;46498;49.968;7.754;2023-05-08T08:47:03;20.73;;;15.38;;
28605;SDS011;46498;49.968;7.754;2023-05-08T08:52:16;20.93;;;15.10;;
28605;SDS011;46498;49.968;7.754;2023-05-08T09:04:15;19.27;;;14.60;;
28605;SDS011;46498;49.968;7.754;2023-05-08T09:09:17;21.65;;;14.85;;
28605;SDS011;46498;49.968;7.754;2023-05-08T09:14:18;21.80;;;15.27;;
28605;SDS011;46498;49.968;7.754;2023-05-08T09:19:19;19.83;;;15.18;;
28605;SDS011;46498;49.968;7.754;2023-05-08T09:24:26;19.05;;;15.10;;
28605;SDS011;46498;49.968;7.754;2023-05-08T09:29:58;20.62;;;15.27;;
28605;SDS011;46498;49.968;7.754;2023-05-08T09:35:04;23.38;;;15.32;;
28605;SDS011;46498;49.968;7.754;2023-05-08T09:41:06;19.55;;;15.02;;
28605;SDS011;46498;49.968;7.754;2023-05-08T09:46:21;19.77;;;15.02;;
28605;SDS011;46498;49.968;7.754;2023-05-08T09:51:24;25.60;;;18.25;;
28605;SDS011;46498;49.968;7.754;2023-05-08T09:56:32;22.57;;;17.10;;
28605;SDS011;46498;49.968;7.754;2023-05-08T10:01:35;25.65;;;17.75;;
28605;SDS011;46498;49.968;7.754;2023-05-08T10:06:36;27.80;;;19.23;;
28605;SDS011;46498;49.968;7.754;2023-05-08T10:11:39;24.73;;;17.42;;
28605;SDS011;46498;49.968;7.754;2023-05-08T10:16:41;24.75;;;17.92;;
28605;SDS011;46498;49.968;7.754;2023-05-08T10:21:48;24.30;;;17.70;;
28605;SDS011;46498;49.968;7.754;2023-05-08T10:27:08;26.55;;;17.40;;
28605;SDS011;46498;49.968;7.754;2023-05-08T10:37:18;25.37;;;18.05;;
28605;SDS011;46498;49.968;7.754;2023-05-08T10:42:19;36.97;;;18.23;;
28605;SDS011;46498;49.968;7.754;2023-05-08T10:47:23;26.20;;;17.73;;
28605;SDS011;46498;49.968;7.754;2023-05-08T10:52:38;27.05;;;18.83;;
28605;SDS011;46498;49.968;7.754;2023-05-08T11:03:15;31.20;;;20.37;;
28605;SDS011;46498;49.968;7.754;2023-05-08T11:08:32;22.73;;;17.25;;
28605;SDS011;46498;49.968;7.754;2023-05-08T11:13:55;29.67;;;21.00;;
28605;SDS011;46498;49.968;7.754;2023-05-08T11:19:15;29.12;;;19.17;;
28605;SDS011;46498;49.968;7.754;2023-05-08T11:24:22;28.25;;;20.12;;
28605;SDS011;46498;49.968;7.754;2023-05-08T11:29:33;27.08;;;21.12;;
28605;SDS011;46498;49.968;7.754;2023-05-08T11:34:44;28.25;;;20.15;;
28605;SDS011;46498;49.968;7.754;2023-05-08T11:39:47;30.50;;;19.77;;
28605;SDS011;46498;49.968;7.754;2023-05-08T11:44:48;30.55;;;20.65;;
28605;SDS011;46498;49.968;7.754;2023-05-08T11:49:50;30.70;;;21.23;;
28605;SDS011;46498;49.968;7.754;2023-05-08T11:54:50;27.65;;;20.35;;
28605;SDS011;46498;49.968;7.754;2023-05-08T11:59:51;25.15;;;19.42;;
28605;SDS011;46498;49.968;7.754;2023-05-08T12:04:52;27.73;;;17.50;;
28605;SDS011;46498;49.968;7.754;2023-05-08T12:09:54;23.83;;;16.60;;
28605;SDS011;46498;49.968;7.754;2023-05-08T12:14:54;14.93;;;12.37;;
28605;SDS011;46498;49.968;7.754;2023-05-08T12:19:55;16.08;;;11.30;;
28605;SDS011;46498;49.968;7.754;2023-05-08T12:24:56;11.90;;;9.80;;
28605;SDS011;46498;49.968;7.754;2023-05-08T12:29:57;16.33;;;10.70;;
28605;SDS011;46498;49.968;7.754;2023-05-08T12:34:58;18.40;;;12.95;;
28605;SDS011;46498;49.968;7.754;2023-05-08T12:40:00;18.20;;;12.30;;
28605;SDS011;46498;49.968;7.754;2023-05-08T12:45:01;23.05;;;14.93;;
28605;SDS011;46498;49.968;7.754;2023-05-08T12:50:02;24.65;;;14.52;;
28605;SDS011;46498;49.968;7.754;2023-05-08T12:55:03;24.02;;;15.35;;
28605;SDS011;46498;49.968;7.754;2023-05-08T13:00:05;26.73;;;17.20;;
28605;SDS011;46498;49.968;7.754;2023-05-08T13:05:07;29.63;;;17.40;;
28605;SDS011;46498;49.968;7.754;2023-05-08T13:10:08;36.85;;;20.55;;
28605;SDS011;46498;49.968;7.754;2023-05-08T13:15:10;33.42;;;21.75;;
28605;SDS011;46498;49.968;7.754;2023-05-08T13:20:10;43.13;;;22.95;;
28605;SDS011;46498;49.968;7.754;2023-05-08T13:25:12;39.63;;;26.27;;
28605;SDS011;46498;49.968;7.754;2023-05-08T13:30:13;46.72;;;28.33;;
28605;SDS011;46498;49.968;7.754;2023-05-08T13:35:15;51.78;;;29.92;;
28605;SDS011;46498;49.968;7.754;2023-05-08T13:40:17;43.10;;;26.95;;
28605;SDS011;46498;49.968;7.754;2023-05-08T13:45:19;46.97;;;29.23;;
28605;SDS011;46498;49.968;7.754;2023-05-08T13:50:20;47.83;;;29.83;;
28605;SDS011;46498;49.968;7.754;2023-05-08T13:55:21;47.97;;;30.60;;
28605;SDS011;46498;49.968;7.754;2023-05-08T14:00:22;44.63;;;28.85;;
28605;SDS011;46498;49.968;7.754;2023-05-08T14:05:26;48.85;;;28.70;;
28605;SDS011;46498;49.968;7.754;2023-05-08T14:10:27;41.22;;;29.15;;
28605;SDS011;46498;49.968;7.754;2023-05-08T14:15:28;45.78;;;28.98;;
28605;SDS011;46498;49.968;7.754;2023-05-08T14:20:37;46.28;;;31.17;;
28605;SDS011;46498;49.968;7.754;2023-05-08T14:25:38;50.03;;;31.15;;
28605;SDS011;46498;49.968;7.754;2023-05-08T14:30:39;39.22;;;27.58;;
28605;SDS011;46498;49.968;7.754;2023-05-08T14:35:40;43.17;;;28.95;;
28605;SDS011;46498;49.968;7.754;2023-05-08T14:40:42;46.88;;;29.63;;
28605;SDS011;46498;49.968;7.754;2023-05-08T14:45:43;44.22;;;28.35;;
28605;SDS011;46498;49.968;7.754;2023-05-08T14:50:44;43.05;;;29.12;;
28605;SDS011;46498;49.968;7.754;2023-05-08T14:55:45;41.47;;;26.58;;
28605;SDS011;46498;49.968;7.754;2023-05-08T15:00:46;39.33;;;26.62;;
28605;SDS011;46498;49.968;7.754;2023-05-08T15:05:47;36.10;;;26.02;;
28605;SDS011;46498;49.968;7.754;2023-05-08T15:10:48;33.20;;;23.50;;
28605;SDS011;46498;49.968;7.754;2023-05-08T15:15:49;36.92;;;25.05;;
28605;SDS011;46498;49.968;7.754;2023-05-08T15:20:50;36.58;;;24.23;;
28605;SDS011;46498;49.968;7.754;2023-05-08T15:25:51;36.88;;;25.37;;
28605;SDS011;46498;49.968;7.754;2023-05-08T15:30:52;34.22;;;24.75;;
28605;SDS011;46498;49.968;7.754;2023-05-08T15:35:52;33.88;;;23.35;;
28605;SDS011;46498;49.968;7.754;2023-05-08T15:40:53;32.90;;;22.52;;
28605;SDS011;46498;49.968;7.754;2023-05-08T15:45:54;33.38;;;23.65;;
28605;SDS011;46498;49.968;7.754;2023-05-08T15:50:55;34.67;;;24.83;;
28605;SDS011;46498;49.968;7.754;2023-05-08T15:55:56;33.60;;;25.37;;
28605;SDS011;46498;49.968;7.754;2023-05-08T16:00:58;37.97;;;26.70;;
28605;SDS011;46498;49.968;7.754;2023-05-08T16:05:59;36.15;;;26.52;;
28605;SDS011;46498;49.968;7.754;2023-05-08T16:10:59;39.33;;;27.35;;
28605;SDS011;46498;49.968;7.754;2023-05-08T16:16:04;40.47;;;27.87;;
28605;SDS011;46498;49.968;7.754;2023-05-08T16:21:09;43.42;;;27.37;;
28605;SDS011;46498;49.968;7.754;2023-05-08T16:26:10;37.83;;;26.23;;
28605;SDS011;46498;49.968;7.754;2023-05-08T16:31:13;38.38;;;25.95;;
28605;SDS011;46498;49.968;7.754;2023-05-08T16:36:15;34.63;;;24.40;;
28605;SDS011;46498;49.968;7.754;2023-05-08T16:41:16;31.48;;;23.08;;
28605;SDS011;46498;49.968;7.754;2023-05-08T16:46:17;33.50;;;23.80;;
28605;SDS011;46498;49.968;7.754;2023-05-08T16:51:30;28.50;;;20.00;;
28605;SDS011;46498;49.968;7.754;2023-05-08T16:56:31;30.00;;;22.33;;
28605;SDS011;46498;49.968;7.754;2023-05-08T17:01:32;33.20;;;23.45;;
28605;SDS011;46498;49.968;7.754;2023-05-08T17:06:33;32.55;;;21.77;;
28605;SDS011;46498;49.968;7.754;2023-05-08T17:11:34;31.65;;;23.38;;
28605;SDS011;46498;49.968;7.754;2023-05-08T17:16:35;31.00;;;22.70;;
28605;SDS011;46498;49.968;7.754;2023-05-08T17:21:36;31.05;;;23.87;;
28605;SDS011;46498;49.968;7.754;2023-05-08T17:26:37;33.35;;;22.65;;
28605;SDS011;46498;49.968;7.754;2023-05-08T17:31:38;32.78;;;23.62;;
28605;SDS011;46498;49.968;7.754;2023-05-08T17:36:39;34.20;;;23.10;;
28605;SDS011;46498;49.968;7.754;2023-05-08T17:41:40;28.33;;;21.23;;
28605;SDS011;46498;49.968;7.754;2023-05-08T17:46:41;31.83;;;20.88;;
28605;SDS011;46498;49.968;7.754;2023-05-08T17:51:42;28.50;;;19.98;;
28605;SDS011;46498;49.968;7.754;2023-05-08T17:56:43;26.40;;;19.30;;
28605;SDS011;46498;49.968;7.754;2023-05-08T18:01:44;30.92;;;21.05;;
28605;SDS011;46498;49.968;7.754;2023-05-08T18:06:45;24.67;;;18.90;;
28605;SDS011;46498;49.968;7.754;2023-05-08T18:11:48;25.65;;;18.60;;
28605;SDS011;46498;49.968;7.754;2023-05-08T18:16:49;30.50;;;19.02;;
28605;SDS011;46498;49.968;7.754;2023-05-08T18:21:50;30.40;;;21.42;;
28605;SDS011;46498;49.968;7.754;2023-05-08T18:26:51;26.83;;;19.62;;
28605;SDS011;46498;49.968;7.754;2023-05-08T18:31:53;25.90;;;19.83;;
28605;SDS011;46498;49.968;7.754;2023-05-08T18:36:54;26.55;;;18.12;;
28605;SDS011;46498;49.968;7.754;2023-05-08T18:41:58;23.08;;;16.58;;
28605;SDS011;46498;49.968;7.754;2023-05-08T18:46:59;22.23;;;15.13;;
28605;SDS011;46498;49.968;7.754;2023-05-08T18:52:01;24.20;;;16.17;;
28605;SDS011;46498;49.968;7.754;2023-05-08T18:57:02;24.17;;;17.45;;
28605;SDS011;46498;49.968;7.754;2023-05-08T19:02:03;27.58;;;17.60;;
28605;SDS011;46498;49.968;7.754;2023-05-08T19:07:04;23.75;;;16.27;;
28605;SDS011;46498;49.968;7.754;2023-05-08T19:12:05;25.98;;;17.52;;
28605;SDS011;46498;49.968;7.754;2023-05-08T19:17:06;27.05;;;19.35;;
28605;SDS011;46498;49.968;7.754;2023-05-08T19:22:07;25.62;;;16.98;;
28605;SDS011;46498;49.968;7.754;2023-05-08T19:27:07;23.87;;;17.58;;
28605;SDS011;46498;49.968;7.754;2023-05-08T19:32:08;30.35;;;20.02;;
28605;SDS011;46498;49.968;7.754;2023-05-08T19:37:09;30.20;;;21.20;;
28605;SDS011;46498;49.968;7.754;2023-05-08T19:42:10;27.30;;;20.62;;
28605;SDS011;46498;49.968;7.754;2023-05-08T19:47:13;25.80;;;18.83;;
28605;SDS011;46498;49.968;7.754;2023-05-08T19:52:14;32.20;;;22.42;;
28605;SDS011;46498;49.968;7.754;2023-05-08T19:57:14;34.38;;;23.10;;
28605;SDS011;46498;49.968;7.754;2023-05-08T20:02:16;28.23;;;20.15;;
28605;SDS011;46498;49.968;7.754;2023-05-08T20:07:16;32.65;;;21.35;;
28605;SDS011;46498;49.968;7.754;2023-05-08T20:12:18;32.33;;;21.87;;
28605;SDS011;46498;49.968;7.754;2023-05-08T20:17:18;35.17;;;23.77;;
28605;SDS011;46498;49.968;7.754;2023-05-08T20:22:19;27.13;;;20.30;;
28605;SDS011;46498;49.968;7.754;2023-05-08T20:27:20;28.20;;;20.17;;
28605;SDS011;46498;49.968;7.754;2023-05-08T20:32:21;25.88;;;18.25;;
28605;SDS011;46498;49.968;7.754;2023-05-08T20:37:24;35.85;;;24.55;;
28605;SDS011;46498;49.968;7.754;2023-05-08T20:42:25;41.78;;;28.80;;
28605;SDS011;46498;49.968;7.754;2023-05-08T20:47:26;38.72;;;25.95;;
28605;SDS011;46498;49.968;7.754;2023-05-08T20:52:27;32.65;;;22.87;;
28605;SDS011;46498;49.968;7.754;2023-05-08T20:57:28;36.83;;;25.33;;
28605;SDS011;46498;49.968;7.754;2023-05-08T21:02:29;39.10;;;24.63;;
28605;SDS011;46498;49.968;7.754;2023-05-08T21:07:30;37.88;;;24.75;;
28605;SDS011;46498;49.968;7.754;2023-05-08T21:12:31;39.25;;;26.83;;
28605;SDS011;46498;49.968;7.754;2023-05-08T21:17:31;38.97;;;26.08;;
28605;SDS011;46498;49.968;7.754;2023-05-08T21:22:32;39.97;;;25.05;;
28605;SDS011;46498;49.968;7.754;2023-05-08T21:27:47;40.78;;;26.52;;
28605;SDS011;46498;49.968;7.754;2023-05-08T21:32:48;35.15;;;24.75;;
28605;SDS011;46498;49.968;7.754;2023-05-08T21:37:49;35.80;;;23.73;;
28605;SDS011;46498;49.968;7.754;2023-05-08T21:42:53;37.00;;;23.70;;
28605;SDS011;46498;49.968;7.754;2023-05-08T21:47:54;36.83;;;22.75;;
28605;SDS011;46498;49.968;7.754;2023-05-08T21:52:55;31.42;;;21.60;;
28605;SDS011;46498;49.968;7.754;2023-05-08T21:57:56;31.77;;;20.77;;
28605;SDS011;46498;49.968;7.754;2023-05-08T22:02:57;31.73;;;22.23;;
28605;SDS011;46498;49.968;7.754;2023-05-08T22:07:58;42.97;;;25.62;;
28605;SDS011;46498;49.968;7.754;2023-05-08T22:12:59;33.47;;;21.80;;
28605;SDS011;46498;49.968;7.754;2023-05-08T22:18:01;36.17;;;24.07;;
28605;SDS011;46498;49.968;7.754;2023-05-08T22:23:02;29.02;;;21.20;;
28605;SDS011;46498;49.968;7.754;2023-05-08T22:28:02;32.90;;;22.95;;
28605;SDS011;46498;49.968;7.754;2023-05-08T22:33:04;30.08;;;21.40;;
28605;SDS011;46498;49.968;7.754;2023-05-08T22:38:04;32.65;;;20.98;;
28605;SDS011;46498;49.968;7.754;2023-05-08T22:43:05;34.35;;;22.65;;
28605;SDS011;46498;49.968;7.754;2023-05-08T22:48:06;33.65;;;22.15;;
28605;SDS011;46498;49.968;7.754;2023-05-08T22:53:07;32.08;;;22.77;;
28605;SDS011;46498;49.968;7.754;2023-05-08T22:58:09;47.60;;;26.30;;
28605;SDS011;46498;49.968;7.754;2023-05-08T23:03:11;34.00;;;23.70;;
28605;SDS011;46498;49.968;7.754;2023-05-08T23:08:13;36.92;;;23.77;;
28605;SDS011;46498;49.968;7.754;2023-05-08T23:13:13;29.05;;;19.60;;
28605;SDS011;46498;49.968;7.754;2023-05-08T23:18:14;38.70;;;25.52;;
28605;SDS011;46498;49.968;7.754;2023-05-08T23:23:15;38.90;;;27.13;;
28605;SDS011;46498;49.968;7.754;2023-05-08T23:28:16;37.00;;;23.98;;
28605;SDS011;46498;49.968;7.754;2023-05-08T23:33:17;33.90;;;21.75;;
28605;SDS011;46498;49.968;7.754;2023-05-08T23:38:18;38.50;;;25.37;;
28605;SDS011;46498;49.968;7.754;2023-05-08T23:43:19;42.78;;;27.60;;
28605;SDS011;46498;49.968;7.754;2023-05-08T23:48:20;47.25;;;30.80;;
28605;SDS011;46498;49.968;7.754;2023-05-08T23:53:21;43.17;;;27.37;;
28605;SDS011;46498;49.968;7.754;2023-05-08T23:58:21;36.13;;;24.17;;
